Little Rock AFB, AR

4:26 AM CST on December 04, 2016 (GMT -0600)
Little Rock Air Force Base | | Change Station

Elev 312 ft 34.92 °N, 92.15 °W | Updated 28 minutes ago

Overcast
Overcast
42 °F
Feels Like 38 °F
N
7
Wind Variable Wind from NE

Today
High -- | Low -- °F
--% Chance of Precip.
Yesterday
High -- | Low -- °F
Precip. -- in
Pressure 30.01 in
Visibility 10.0 miles
Clouds Overcast 500 ft
Windchill 38 °F
Dew Point 42 °F
Humidity 99%
Rainfall 0.04 in
Snow Depth Not available.
7:01 AM 4:56 PM
Waxing Crescent, 21% visible
METAR KLRF 040958Z AUTO 05006KT 10SM OVC005 06/06 A3000 RMK AO2 SLP163 T00570056
Pressure 30.01 in
Visibility 10.0 miles
Clouds Overcast 500 ft
Windchill 38 °F
Dew Point 42 °F
Humidity 99%
Rainfall 0.04 in
Snow Depth Not available.
7:01 AM 4:56 PM
Waxing Crescent, 21% visible
METAR KLRF 040958Z AUTO 05006KT 10SM OVC005 06/06 A3000 RMK AO2 SLP163 T00570056

10-Day Weather Forecast

Almanac

Astronomy

Dec. 04, 2016 Rise Set
Actual Time
Civil Twilight
Nautical Twilight
Astronomical Twilight
Moon
Length of Visible Light
Length of Day
Tomorrow will be .
, % of the Moon is Illuminated

Today's Extremes

State Highs State Lows

Community

WunderPhotos

Upload Photos

1,955,591 photos uploaded!

WunderBlog® & News

Nearby

Air Quality

  Air Quality AQ Index Pollutant
Not available.

Snow Depth

Station Depth Elevation

Earthquake Activity

City Distance Mag. Time & Date
Minimum magnitude displayed is 2.5.

Coastal Water Temperatures

Place Temperature

Stations

Nearby Weather Stations

Station Location Temp. Windchill Dew Point Humidity Wind Precip. Elev Updated Type
                   

Watches & Warnings

There are currently no watches in effect.